createdAt,value
2022-11-24T00:01:27.150Z,7
2022-11-24T00:06:36.143Z,7
2022-11-24T00:11:45.216Z,7.31
2022-11-24T00:16:54.299Z,7.37
2022-11-24T00:22:03.294Z,7.44
2022-11-24T00:27:12.266Z,7.44
2022-11-24T00:32:21.195Z,7.37
2022-11-24T00:37:30.054Z,7.12
2022-11-24T00:42:39.044Z,6.75
2022-11-24T00:47:47.995Z,6.37
2022-11-24T00:52:56.912Z,6.19
2022-11-24T01:12:59.250Z,5.37
2022-11-24T01:18:08.186Z,5.19
2022-11-24T01:28:26.368Z,5.25
2022-11-24T01:33:35.303Z,5.31
2022-11-24T01:38:44.152Z,5.37
2022-11-24T01:43:53.162Z,5.5
2022-11-24T01:54:00.321Z,5.75
2022-11-24T02:09:07.004Z,6.31
2022-11-24T02:14:16.006Z,6.37
2022-11-24T02:24:23.249Z,6.44
2022-11-24T02:29:32.289Z,6.31
2022-11-24T02:34:41.192Z,6
2022-11-24T02:39:50.174Z,5.75
2022-11-24T02:44:59.021Z,5.56
2022-11-24T02:50:07.963Z,5.44
2022-11-24T02:55:17.367Z,5.37
2022-11-24T03:00:26.197Z,5.37
2022-11-24T03:05:35.164Z,5.25
2022-11-24T03:10:44.116Z,5.06
2022-11-24T03:15:53.122Z,5.06
2022-11-24T03:21:02.131Z,5.25
2022-11-24T03:26:11.168Z,5.31
2022-11-24T03:31:20.169Z,5.5
2022-11-24T03:36:29.221Z,5.69
2022-11-24T03:41:38.484Z,5.87
2022-11-24T03:46:47.489Z,6.06
2022-11-24T03:51:56.454Z,6.12
2022-11-24T03:57:05.324Z,6.25
2022-11-24T04:02:14.423Z,6.25
2022-11-24T04:07:23.388Z,6.31
2022-11-24T04:12:32.481Z,6.31
2022-11-24T04:17:41.542Z,6.44
2022-11-24T04:22:50.484Z,6.62
2022-11-24T04:28:02.624Z,6.87
2022-11-24T04:33:11.588Z,7.06
2022-11-24T04:39:19.258Z,7.12
2022-11-24T04:43:29.855Z,7.25
2022-11-24T04:48:39.032Z,7.31
2022-11-24T04:53:48.088Z,7.37
2022-11-24T04:58:56.801Z,7.44
2022-11-24T05:04:08.753Z,7.44
2022-11-24T05:09:17.691Z,7.5
2022-11-24T05:14:26.568Z,7.5
2022-11-24T05:19:35.496Z,7.5
2022-11-24T05:24:44.819Z,7.5
2022-11-24T05:29:54.019Z,7.5
2022-11-24T05:35:03.024Z,7.56
2022-11-24T05:45:09.946Z,7.69
2022-11-24T05:50:18.917Z,7.69
2022-11-24T05:55:28.031Z,7.62
2022-11-24T06:00:37.498Z,7.62
2022-11-24T06:05:46.143Z,7.56
2022-11-24T06:10:55.229Z,7.56
2022-11-24T06:16:04.326Z,7.62
2022-11-24T06:21:13.275Z,7.56
2022-11-24T06:26:22.008Z,7.62
2022-11-24T06:31:30.959Z,7.56
2022-11-24T06:36:40.068Z,7.5
2022-11-24T06:41:49.084Z,7.5
2022-11-24T06:46:58.118Z,7.5
2022-11-24T06:52:06.935Z,7.44
2022-11-24T06:57:15.940Z,7.44
2022-11-24T07:02:25.282Z,7.37
2022-11-24T07:07:34.294Z,7.37
2022-11-24T07:12:43.165Z,7.44
2022-11-24T07:17:52.298Z,7.37
2022-11-24T07:23:01.285Z,7.37
2022-11-24T07:28:10.298Z,7.44
2022-11-24T07:33:19.376Z,7.44
2022-11-24T07:38:28.367Z,7.5
2022-11-24T07:48:35.625Z,7.56
2022-11-24T07:53:44.614Z,7.56
2022-11-24T07:58:53.541Z,7.62
2022-11-24T08:04:02.597Z,7.69
2022-11-24T08:09:11.599Z,7.69
2022-11-24T08:14:20.539Z,7.69
2022-11-24T08:19:29.690Z,7.75
2022-11-24T08:24:38.675Z,7.81
2022-11-24T08:29:47.659Z,7.87
2022-11-24T08:35:08.485Z,7.94
2022-11-24T08:40:05.575Z,8
2022-11-24T08:45:20.706Z,8.06
2022-11-24T08:50:23.649Z,8.13
2022-11-24T09:00:31.287Z,8.31
2022-11-24T09:05:53.257Z,8.25
2022-11-24T09:10:49.694Z,8.5
2022-11-24T09:15:58.468Z,8.63
2022-11-24T09:21:08.057Z,8.81
2022-11-24T09:26:17.116Z,8.94
2022-11-24T09:31:25.924Z,9.25
2022-11-24T09:36:34.695Z,9.13
2022-11-24T09:41:43.591Z,9
2022-11-24T09:46:52.861Z,9.06
2022-11-24T09:52:01.705Z,9.19
2022-11-24T09:57:10.637Z,9.19
2022-11-24T10:02:19.739Z,9.25
2022-11-24T10:07:28.902Z,9.44
2022-11-24T10:12:37.805Z,9.25
2022-11-24T10:17:46.466Z,8.94
2022-11-24T10:22:55.738Z,8.94
2022-11-24T10:43:06.546Z,10.19
2022-11-24T10:48:15.825Z,10.25
2022-11-24T10:53:24.573Z,10.38
2022-11-24T10:58:37.584Z,10.44
2022-11-24T11:03:42.854Z,10.69
2022-11-24T11:08:51.355Z,10.63
2022-11-24T11:19:33.195Z,11.31
2022-11-24T11:24:18.568Z,10.81
2022-11-24T11:34:36.432Z,10.75
2022-11-24T11:39:48.578Z,11
2022-11-24T11:44:54.209Z,11.19
2022-11-24T11:50:03.522Z,11.44
2022-11-24T11:55:12.644Z,11.63
2022-11-24T12:00:21.754Z,11.69
2022-11-24T12:05:30.606Z,11.63
2022-11-24T12:10:40.035Z,11.81
2022-11-24T12:15:48.934Z,11.69
2022-11-24T12:26:07.586Z,11.94
2022-11-24T12:31:16.786Z,12.13
2022-11-24T12:36:26.124Z,12.13
2022-11-24T12:41:41.528Z,11.94
2022-11-24T12:46:43.515Z,11.81
2022-11-24T12:51:52.142Z,11.56
2022-11-24T12:57:00.621Z,11
2022-11-24T13:02:09.588Z,10.81
2022-11-24T13:07:18.396Z,10.81
2022-11-24T13:17:58.348Z,11.69
2022-11-24T13:22:46.810Z,12.19
2022-11-24T13:27:55.645Z,11.88
2022-11-24T13:33:03.737Z,11.12
2022-11-24T13:38:12.253Z,10.81
2022-11-24T13:43:21.115Z,10.56
2022-11-24T13:48:30.051Z,10.56
2022-11-24T13:53:38.912Z,10.69
2022-11-24T13:58:48.187Z,10.81
2022-11-24T14:04:28.470Z,10.81
2022-11-24T14:09:06.298Z,10.75
2022-11-24T14:14:16.126Z,11
2022-11-24T14:19:26.701Z,11
2022-11-24T14:24:36.778Z,10.81
2022-11-24T14:29:42.139Z,10.75
2022-11-24T14:34:51.044Z,10.5
2022-11-24T14:39:59.844Z,10.38
2022-11-24T14:45:08.816Z,10.25
2022-11-24T14:50:17.999Z,10.38
2022-11-24T14:55:27.574Z,10.25
2022-11-24T15:00:36.439Z,10.13
2022-11-24T15:05:45.369Z,10.13
2022-11-24T15:10:54.266Z,10
2022-11-24T15:16:03.634Z,9.63
2022-11-24T15:21:17.434Z,9.25
2022-11-24T15:26:21.177Z,8.88
2022-11-24T15:31:29.493Z,8.44
2022-11-24T15:36:38.242Z,7.94
2022-11-24T15:41:47.052Z,7.62
2022-11-24T15:46:56.164Z,7.31
2022-11-24T15:52:05.176Z,7.25
2022-11-24T15:57:14.146Z,7.06
2022-11-24T16:02:23.132Z,6.87
2022-11-24T16:07:32.317Z,6.56
2022-11-24T16:12:41.148Z,6.31
2022-11-24T16:22:58.820Z,6
2022-11-24T16:28:07.836Z,5.81
2022-11-24T16:33:16.721Z,5.62
2022-11-24T16:38:25.690Z,5.62
2022-11-24T16:43:34.627Z,5.69
2022-11-24T16:48:47.360Z,5.5
2022-11-24T16:53:56.449Z,5.31
2022-11-24T16:59:05.337Z,5.19
2022-11-24T17:04:14.174Z,5.12
2022-11-24T17:09:23.203Z,5.12
2022-11-24T17:14:32.474Z,5.06
2022-11-24T17:19:41.090Z,4.94
2022-11-24T17:29:48.021Z,4.81
2022-11-24T17:34:57.034Z,4.75
2022-11-24T17:40:27.157Z,4.69
2022-11-24T17:45:15.162Z,4.56
2022-11-24T17:50:26.230Z,4.5
2022-11-24T17:55:33.123Z,4.5
2022-11-24T18:00:45.895Z,4.5
2022-11-24T18:05:54.836Z,4.44
2022-11-24T18:11:03.863Z,4.37
2022-11-24T18:16:12.836Z,4.31
2022-11-24T18:21:21.785Z,4.31
2022-11-24T18:26:30.744Z,4.31
2022-11-24T18:31:39.739Z,4.25
2022-11-24T18:41:57.556Z,4.19
2022-11-24T18:47:06.706Z,4.19
2022-11-24T18:52:15.657Z,4.12
2022-11-24T18:57:24.722Z,4.06
2022-11-24T19:02:36.819Z,4
2022-11-24T19:07:45.667Z,4
2022-11-24T19:12:54.602Z,3.87
2022-11-24T19:18:03.543Z,3.87
2022-11-24T19:23:12.423Z,3.75
2022-11-24T19:28:21.491Z,3.75
2022-11-24T19:33:30.474Z,3.69
2022-11-24T19:38:39.359Z,3.69
2022-11-24T19:43:48.181Z,3.69
2022-11-24T19:48:57.391Z,3.69
2022-11-24T19:54:06.239Z,3.87
2022-11-24T19:59:15.243Z,3.81
2022-11-24T20:04:24.279Z,3.81
2022-11-24T20:09:33.252Z,3.87
2022-11-24T20:14:42.141Z,3.87
2022-11-24T20:19:51.237Z,3.81
2022-11-24T20:25:00.164Z,3.75
2022-11-24T20:30:09.069Z,3.69
2022-11-24T20:35:18.534Z,3.62
2022-11-24T20:40:27.098Z,3.5
2022-11-24T20:45:36.150Z,3.5
2022-11-24T20:50:49.850Z,3.69
2022-11-24T20:55:54.356Z,3.69
2022-11-24T21:01:03.459Z,3.69
2022-11-24T21:06:12.392Z,3.62
2022-11-24T21:11:21.295Z,3.56
2022-11-24T21:16:30.397Z,3.5
2022-11-24T21:21:39.131Z,3.37
2022-11-24T21:26:48.223Z,3.25
2022-11-24T21:31:57.244Z,3.19
2022-11-24T21:37:06.122Z,3.12
2022-11-24T21:42:15.043Z,3.12
2022-11-24T21:47:23.956Z,3.31
2022-11-24T21:52:32.997Z,3.19
2022-11-24T21:57:41.971Z,3.06
2022-11-24T22:02:51.000Z,3
2022-11-24T22:08:00.020Z,2.94
2022-11-24T22:13:08.797Z,2.81
2022-11-24T22:23:15.944Z,2.56
2022-11-24T22:28:24.930Z,2.5
2022-11-24T22:33:33.884Z,2.44
2022-11-24T22:38:42.912Z,2.44
2022-11-24T22:48:49.905Z,2.37
2022-11-24T22:53:58.889Z,2.31
2022-11-24T22:59:07.734Z,2.31
2022-11-24T23:04:16.865Z,2.31
2022-11-24T23:09:25.702Z,2.31
2022-11-24T23:14:34.977Z,2.31
2022-11-24T23:19:43.885Z,2.31
2022-11-24T23:24:52.885Z,2.31
2022-11-24T23:30:01.789Z,2.25
2022-11-24T23:35:14.262Z,2.25
2022-11-24T23:40:22.852Z,2.25
2022-11-24T23:45:31.851Z,2.25
2022-11-24T23:50:40.671Z,2.25
2022-11-24T23:55:49.796Z,2.31
